createdAt,value
2024-02-29T00:00:22.136Z,27.90
2024-02-29T00:03:10.343Z,21.60
2024-02-29T00:05:38.887Z,21.80
2024-02-29T00:08:07.426Z,22.80
2024-02-29T00:10:35.491Z,20.90
2024-02-29T00:13:03.525Z,23.00
2024-02-29T00:15:31.723Z,17.00
2024-02-29T00:17:59.897Z,24.90
2024-02-29T00:20:28.092Z,19.40
2024-02-29T00:22:56.150Z,24.10
2024-02-29T00:25:24.343Z,22.10
2024-02-29T00:27:52.510Z,21.80
2024-02-29T00:30:21.286Z,23.20
2024-02-29T00:32:49.420Z,21.10
2024-02-29T00:35:17.546Z,23.20
2024-02-29T00:37:46.102Z,22.00
2024-02-29T00:40:14.463Z,23.00
2024-02-29T00:42:42.522Z,22.40
2024-02-29T00:45:10.608Z,18.90
2024-02-29T00:47:39.290Z,22.00
2024-02-29T00:50:08.431Z,20.40
2024-02-29T00:52:36.575Z,20.10
2024-02-29T00:55:05.521Z,21.10
2024-02-29T00:57:33.869Z,23.30
2024-02-29T01:00:02.212Z,19.50
2024-02-29T01:02:55.417Z,22.80
2024-02-29T01:05:23.446Z,18.90
2024-02-29T01:07:51.615Z,24.60
2024-02-29T01:10:19.883Z,20.80
2024-02-29T01:12:48.298Z,25.60
2024-02-29T01:15:16.710Z,19.30
2024-02-29T01:17:45.148Z,23.10
2024-02-29T01:20:13.387Z,21.90
2024-02-29T01:22:41.620Z,20.00
2024-02-29T01:25:11.386Z,28.40
2024-02-29T01:27:39.782Z,22.10
2024-02-29T01:30:08.381Z,17.70
2024-02-29T01:32:37.870Z,21.60
2024-02-29T01:35:06.934Z,21.80
2024-02-29T01:37:35.025Z,19.40
2024-02-29T01:40:03.451Z,14.30
2024-02-29T01:42:31.592Z,17.30
2024-02-29T01:44:59.635Z,22.90
2024-02-29T01:47:28.126Z,15.40
2024-02-29T01:50:00.194Z,14.70
2024-02-29T01:52:30.734Z,22.20
2024-02-29T01:55:04.165Z,19.40
2024-02-29T02:00:05.810Z,17.60
2024-02-29T02:02:35.506Z,20.60
2024-02-29T02:05:03.864Z,21.60
2024-02-29T02:07:33.444Z,20.00
2024-02-29T02:10:01.774Z,20.80
2024-02-29T02:12:29.951Z,21.00
2024-02-29T02:15:03.670Z,21.20
2024-02-29T02:17:33.584Z,22.40
2024-02-29T02:20:02.673Z,20.30
2024-02-29T02:22:31.478Z,21.40
2024-02-29T02:24:59.525Z,23.30
2024-02-29T02:27:27.739Z,22.10
2024-02-29T02:29:57.212Z,18.60
2024-02-29T02:32:25.311Z,21.20
2024-02-29T02:34:53.485Z,18.30
2024-02-29T02:37:21.636Z,22.40
2024-02-29T02:39:49.744Z,18.00
2024-02-29T02:42:18.002Z,23.70
2024-02-29T02:44:45.997Z,17.40
2024-02-29T02:47:14.015Z,17.30
2024-02-29T02:49:43.059Z,21.30
2024-02-29T02:52:11.234Z,17.50
2024-02-29T02:54:40.713Z,18.70
2024-02-29T02:57:09.478Z,22.00
2024-02-29T02:59:37.550Z,21.70
2024-02-29T03:02:05.598Z,20.20
2024-02-29T03:04:33.900Z,21.30
2024-02-29T03:07:01.983Z,18.20
2024-02-29T03:09:31.908Z,22.70
2024-02-29T03:12:00.213Z,25.30
2024-02-29T03:14:28.349Z,23.10
2024-02-29T03:16:56.926Z,19.50
2024-02-29T03:19:25.042Z,17.70
2024-02-29T03:21:53.258Z,16.30
2024-02-29T03:24:21.407Z,22.40
2024-02-29T03:26:49.560Z,19.60
2024-02-29T03:29:17.706Z,22.30
2024-02-29T03:31:46.720Z,20.50
2024-02-29T03:34:16.431Z,17.70
2024-02-29T03:36:44.729Z,21.50
2024-02-29T03:39:12.838Z,20.30
2024-02-29T03:41:41.055Z,19.80
2024-02-29T03:44:09.133Z,27.40
2024-02-29T03:46:37.199Z,19.10
2024-02-29T03:49:05.360Z,20.40
2024-02-29T03:51:34.331Z,22.80
2024-02-29T03:54:03.543Z,23.10
2024-02-29T03:56:32.448Z,20.20
2024-02-29T03:59:00.721Z,19.70
2024-02-29T04:01:28.802Z,19.10
2024-02-29T04:03:57.065Z,23.70
2024-02-29T04:06:25.208Z,20.50
2024-02-29T04:08:53.424Z,20.90
2024-02-29T04:11:21.542Z,17.80
2024-02-29T04:13:49.627Z,20.90
2024-02-29T04:16:18.451Z,19.10
2024-02-29T04:18:46.710Z,18.60
2024-02-29T04:21:14.757Z,16.70
2024-02-29T04:23:42.814Z,18.30
2024-02-29T04:26:10.830Z,19.00
2024-02-29T04:28:39.072Z,20.50
2024-02-29T04:31:07.235Z,16.90
2024-02-29T04:33:35.340Z,16.90
2024-02-29T04:36:03.651Z,20.70
2024-02-29T04:38:31.777Z,19.00
2024-02-29T04:40:59.875Z,22.50
2024-02-29T04:43:28.360Z,21.80
2024-02-29T04:45:56.758Z,20.50
2024-02-29T04:48:27.347Z,18.50
2024-02-29T04:50:55.712Z,27.00
2024-02-29T04:53:23.826Z,21.10
2024-02-29T04:55:51.984Z,22.20
2024-02-29T04:58:20.286Z,22.00
2024-02-29T05:00:49.748Z,21.50
2024-02-29T05:03:18.231Z,19.50
2024-02-29T05:05:46.506Z,25.00
2024-02-29T05:08:14.534Z,19.30
2024-02-29T05:10:42.882Z,21.00
2024-02-29T05:13:11.435Z,21.40
2024-02-29T05:15:40.439Z,17.70
2024-02-29T05:18:08.834Z,20.00
2024-02-29T05:20:37.153Z,19.70
2024-02-29T05:23:05.457Z,25.60
2024-02-29T05:25:33.649Z,20.70
2024-02-29T05:28:03.018Z,21.70
2024-02-29T05:30:31.056Z,27.80
2024-02-29T05:32:59.227Z,22.00
2024-02-29T05:35:27.476Z,26.70
2024-02-29T05:37:58.481Z,27.10
2024-02-29T05:40:30.791Z,27.30
2024-02-29T05:42:59.000Z,26.20
2024-02-29T05:45:27.065Z,24.40
2024-02-29T05:47:55.266Z,22.10
2024-02-29T05:50:23.316Z,22.30
2024-02-29T05:52:51.426Z,21.70
2024-02-29T05:55:19.756Z,20.60
2024-02-29T05:57:47.948Z,24.50
2024-02-29T06:00:18.697Z,18.40
2024-02-29T06:02:48.551Z,19.30
2024-02-29T06:05:19.982Z,19.90
2024-02-29T06:07:48.524Z,24.30
2024-02-29T06:10:20.763Z,23.30
2024-02-29T06:12:55.947Z,24.70
2024-02-29T06:15:24.192Z,23.10
2024-02-29T06:17:52.258Z,26.80
2024-02-29T06:20:20.385Z,35.90
2024-02-29T06:23:06.280Z,31.80
2024-02-29T06:25:35.796Z,38.60
2024-02-29T06:28:04.083Z,44.70
2024-02-29T06:30:33.892Z,36.40
2024-02-29T06:33:03.336Z,35.80
2024-02-29T06:35:32.477Z,43.80
2024-02-29T06:38:00.511Z,44.00
2024-02-29T06:40:29.248Z,34.70
2024-02-29T06:42:57.480Z,27.20
2024-02-29T06:45:25.766Z,33.10
2024-02-29T06:47:53.944Z,38.40
2024-02-29T06:50:22.098Z,39.50
2024-02-29T06:52:52.344Z,39.20
2024-02-29T06:55:21.912Z,44.90
2024-02-29T06:57:52.422Z,37.00
2024-02-29T07:00:20.647Z,37.40
2024-02-29T07:02:48.921Z,46.30
2024-02-29T07:05:17.988Z,36.80
2024-02-29T07:07:46.709Z,39.70
2024-02-29T07:10:15.063Z,34.50
2024-02-29T07:12:43.902Z,40.70
2024-02-29T07:15:13.809Z,38.60
2024-02-29T07:17:42.979Z,43.20
2024-02-29T07:20:17.908Z,34.30
2024-02-29T07:22:52.546Z,35.60
2024-02-29T07:25:20.701Z,30.30
2024-02-29T07:27:50.468Z,33.50
2024-02-29T07:30:19.851Z,36.60
2024-02-29T07:32:48.336Z,37.00
2024-02-29T07:35:19.194Z,38.50
2024-02-29T07:37:47.792Z,35.00
2024-02-29T07:40:16.242Z,40.80
2024-02-29T07:42:44.590Z,42.50
2024-02-29T07:45:12.768Z,32.90
2024-02-29T07:47:42.137Z,35.70
2024-02-29T07:50:11.133Z,46.10
2024-02-29T07:52:53.109Z,36.70
2024-02-29T07:55:21.381Z,38.30
2024-02-29T07:57:49.611Z,39.70
2024-02-29T08:00:19.145Z,41.50
2024-02-29T08:02:49.986Z,41.40
2024-02-29T08:05:18.329Z,45.10
2024-02-29T08:07:50.899Z,41.80
2024-02-29T08:10:19.287Z,54.90
2024-02-29T08:12:47.814Z,45.90
2024-02-29T08:15:16.393Z,54.60
2024-02-29T08:17:44.670Z,46.00
2024-02-29T08:20:12.885Z,51.00
2024-02-29T08:22:41.183Z,57.20
2024-02-29T08:25:26.225Z,56.80
2024-02-29T08:27:55.224Z,52.20
2024-02-29T08:30:24.467Z,60.50
2024-02-29T08:32:52.589Z,53.60
2024-02-29T08:35:20.773Z,54.90
2024-02-29T08:37:49.156Z,55.50
2024-02-29T08:40:20.985Z,53.80
2024-02-29T08:42:49.157Z,59.70
2024-02-29T08:45:19.802Z,53.20
2024-02-29T08:47:48.864Z,56.80
2024-02-29T08:50:17.178Z,57.20
2024-02-29T08:52:45.492Z,57.50
2024-02-29T08:55:13.733Z,57.50
2024-02-29T08:57:41.816Z,60.50
2024-02-29T09:00:10.920Z,56.40
2024-02-29T09:02:39.267Z,63.20
2024-02-29T09:05:07.845Z,61.90
2024-02-29T09:07:36.099Z,54.80
2024-02-29T09:10:06.207Z,57.00
2024-02-29T09:12:35.849Z,59.10
2024-02-29T09:15:04.450Z,50.20
2024-02-29T09:17:32.687Z,57.80
2024-02-29T09:20:01.029Z,55.80
2024-02-29T09:22:29.277Z,55.20
2024-02-29T09:24:57.561Z,69.90
2024-02-29T09:27:25.618Z,54.40
2024-02-29T09:29:55.461Z,59.30
2024-02-29T09:32:25.092Z,59.50
2024-02-29T09:34:53.565Z,61.30
2024-02-29T09:37:21.913Z,62.80
2024-02-29T09:39:50.486Z,55.00
2024-02-29T09:42:18.788Z,57.70
2024-02-29T09:44:48.554Z,61.90
2024-02-29T09:47:20.696Z,66.50
2024-02-29T09:49:51.410Z,71.60
2024-02-29T09:52:27.533Z,63.80
2024-02-29T09:54:58.582Z,59.50
2024-02-29T10:02:17.277Z,58.30
2024-02-29T10:04:47.820Z,66.50
2024-02-29T10:07:18.711Z,59.40
2024-02-29T10:09:47.245Z,66.20
2024-02-29T10:12:18.558Z,61.70
2024-02-29T10:15:00.273Z,65.50
2024-02-29T10:17:33.582Z,73.40
2024-02-29T10:20:02.037Z,64.20
2024-02-29T10:22:30.251Z,57.80
2024-02-29T10:24:58.412Z,65.40
2024-02-29T10:27:27.168Z,61.40
2024-02-29T10:30:02.976Z,66.50
2024-02-29T10:32:33.489Z,71.20
2024-02-29T10:35:22.157Z,58.90
2024-02-29T10:37:55.017Z,65.60
2024-02-29T10:40:27.718Z,74.10
2024-02-29T10:42:59.492Z,70.80
2024-02-29T10:45:29.417Z,67.10
2024-02-29T10:48:18.913Z,75.80
2024-02-29T10:51:01.602Z,69.70
2024-02-29T10:54:03.620Z,63.60
2024-02-29T10:56:34.872Z,60.50
2024-02-29T10:59:05.452Z,61.10
2024-02-29T11:01:34.749Z,58.50
2024-02-29T11:04:04.420Z,61.00
2024-02-29T11:06:47.761Z,68.50
2024-02-29T11:09:18.485Z,57.80
2024-02-29T11:11:48.629Z,58.70
2024-02-29T11:14:19.039Z,51.70
2024-02-29T11:16:47.459Z,54.50
2024-02-29T11:19:19.450Z,49.60
2024-02-29T11:21:48.036Z,57.00
2024-02-29T11:24:23.587Z,53.50
2024-02-29T11:26:57.663Z,58.20
2024-02-29T11:29:26.447Z,54.60
2024-02-29T11:31:56.459Z,51.00
2024-02-29T11:34:25.117Z,54.60
2024-02-29T11:36:55.004Z,47.10
2024-02-29T11:39:24.563Z,54.90
2024-02-29T11:42:08.031Z,46.40
2024-02-29T11:44:36.299Z,46.70
2024-02-29T11:47:04.679Z,45.90
2024-02-29T11:49:46.199Z,45.70
2024-02-29T11:52:53.784Z,41.50
2024-02-29T11:55:35.312Z,47.60
2024-02-29T11:58:03.718Z,41.10
2024-02-29T12:00:32.145Z,47.40
2024-02-29T12:03:00.743Z,57.40
2024-02-29T12:05:28.938Z,51.20
2024-02-29T12:07:58.293Z,48.70
2024-02-29T12:10:29.945Z,45.00
2024-02-29T12:13:08.211Z,35.60
2024-02-29T12:15:38.718Z,43.60
2024-02-29T12:18:10.704Z,43.80
2024-02-29T12:20:39.043Z,45.50
2024-02-29T12:23:08.591Z,44.20
2024-02-29T12:25:36.726Z,45.50
2024-02-29T12:28:06.837Z,52.50
2024-02-29T12:30:35.830Z,50.50
2024-02-29T12:33:04.413Z,45.10
2024-02-29T12:35:33.494Z,42.80
2024-02-29T12:38:04.728Z,40.80
2024-02-29T12:40:34.334Z,45.00
2024-02-29T12:43:02.829Z,46.70
2024-02-29T12:45:31.171Z,34.60
2024-02-29T12:48:00.492Z,31.50
2024-02-29T12:50:37.884Z,30.20
2024-02-29T12:53:06.048Z,38.10
2024-02-29T12:55:34.472Z,35.50
2024-02-29T12:58:04.995Z,35.70
2024-02-29T13:00:33.939Z,32.10
2024-02-29T13:03:08.998Z,39.70
2024-02-29T13:05:46.903Z,31.90
2024-02-29T13:08:49.330Z,31.70
2024-02-29T13:11:18.155Z,28.30
2024-02-29T13:13:48.523Z,28.70
2024-02-29T13:16:16.646Z,24.60
2024-02-29T13:18:44.928Z,27.50
2024-02-29T13:21:18.824Z,27.10
2024-02-29T13:23:47.079Z,25.30
2024-02-29T13:26:17.344Z,30.30
2024-02-29T13:28:46.841Z,27.80
2024-02-29T13:31:15.396Z,20.90
2024-02-29T13:33:43.576Z,26.00
2024-02-29T13:36:11.953Z,25.50
2024-02-29T13:38:40.448Z,18.10
2024-02-29T13:41:09.053Z,20.90
2024-02-29T13:43:37.892Z,35.40
2024-02-29T13:46:06.645Z,29.90
2024-02-29T13:48:37.098Z,21.10
2024-02-29T13:51:06.806Z,26.40
2024-02-29T13:53:38.455Z,22.90
2024-02-29T13:56:37.403Z,24.70
2024-02-29T13:59:08.678Z,34.50
2024-02-29T14:01:37.027Z,21.00
2024-02-29T14:04:05.528Z,19.30
2024-02-29T14:06:34.262Z,23.70
2024-02-29T14:09:02.819Z,30.10
2024-02-29T14:11:31.059Z,28.40
2024-02-29T14:13:59.221Z,26.80
2024-02-29T14:16:33.727Z,34.10
2024-02-29T14:19:02.609Z,25.20
2024-02-29T14:21:30.724Z,26.00
2024-02-29T14:23:59.255Z,28.80
2024-02-29T14:26:30.517Z,24.30
2024-02-29T14:29:00.740Z,21.50
2024-02-29T14:31:34.621Z,29.00
2024-02-29T14:34:04.151Z,27.50
2024-02-29T14:36:36.262Z,30.00
2024-02-29T14:39:15.324Z,38.60
2024-02-29T14:41:49.054Z,32.30
2024-02-29T14:44:17.416Z,29.50
2024-02-29T14:46:46.571Z,29.50
2024-02-29T14:49:18.024Z,37.10
2024-02-29T14:51:46.575Z,26.70
2024-02-29T14:54:15.891Z,37.50
2024-02-29T14:56:44.718Z,30.00
2024-02-29T15:00:07.327Z,37.90
2024-02-29T15:02:35.506Z,34.40
2024-02-29T15:05:07.999Z,29.80
2024-02-29T15:07:37.729Z,31.50
2024-02-29T15:10:07.734Z,32.50
2024-02-29T15:12:35.817Z,23.80
2024-02-29T15:15:05.378Z,26.00
2024-02-29T15:17:34.456Z,25.90
2024-02-29T15:20:06.024Z,26.60
2024-02-29T15:22:34.216Z,26.70
2024-02-29T15:25:05.293Z,40.00
2024-02-29T15:27:39.307Z,31.50
2024-02-29T15:30:08.434Z,22.10
2024-02-29T15:32:36.856Z,28.50
2024-02-29T15:35:08.892Z,26.20
2024-02-29T15:37:37.267Z,33.70
2024-02-29T15:40:06.148Z,26.00
2024-02-29T15:42:35.885Z,24.30
2024-02-29T15:46:01.765Z,24.50
2024-02-29T15:48:30.736Z,28.10
2024-02-29T15:50:59.203Z,29.30
2024-02-29T15:53:27.233Z,24.90
2024-02-29T15:55:55.465Z,30.50
2024-02-29T15:58:23.738Z,28.10
2024-02-29T16:00:51.891Z,23.80
2024-02-29T16:03:20.053Z,29.20
2024-02-29T16:05:50.588Z,31.10
2024-02-29T16:08:20.628Z,26.10
2024-02-29T16:10:53.069Z,31.80
2024-02-29T16:13:22.862Z,51.70
2024-02-29T16:15:54.508Z,37.30
2024-02-29T16:18:23.447Z,24.70
2024-02-29T16:20:54.550Z,32.20
2024-02-29T16:23:25.028Z,34.80
2024-02-29T16:25:53.116Z,30.80
2024-02-29T16:28:27.218Z,49.70
2024-02-29T16:31:01.036Z,40.20
2024-02-29T16:33:29.292Z,39.60
2024-02-29T16:36:01.605Z,41.90
2024-02-29T16:38:30.052Z,32.80
2024-02-29T16:41:03.685Z,38.50
2024-02-29T16:43:34.997Z,39.00
2024-02-29T16:46:09.951Z,39.10
2024-02-29T16:48:38.537Z,38.00
2024-02-29T16:51:08.907Z,27.70
2024-02-29T16:53:37.765Z,30.00
2024-02-29T16:56:05.992Z,38.30
2024-02-29T16:58:34.349Z,49.00
2024-02-29T17:01:02.639Z,24.60
2024-02-29T17:03:41.732Z,23.40
2024-02-29T17:06:13.183Z,27.60
2024-02-29T17:08:41.222Z,32.90
2024-02-29T17:11:12.705Z,50.90
2024-02-29T17:13:41.039Z,31.60
2024-02-29T17:16:09.194Z,38.10
2024-02-29T17:18:43.155Z,35.50
2024-02-29T17:21:15.865Z,30.70
2024-02-29T17:23:49.572Z,30.70
2024-02-29T17:26:25.629Z,35.20
2024-02-29T17:28:57.537Z,29.50
2024-02-29T17:31:31.474Z,34.60
2024-02-29T17:34:05.818Z,38.60
2024-02-29T17:36:34.468Z,33.50
2024-02-29T17:39:04.390Z,29.10
2024-02-29T17:41:32.963Z,34.10
2024-02-29T17:44:05.562Z,31.30
2024-02-29T17:46:33.597Z,69.80
2024-02-29T17:49:04.236Z,30.70
2024-02-29T17:51:32.318Z,27.90
2024-02-29T17:54:05.817Z,25.40
2024-02-29T17:56:40.341Z,29.50
2024-02-29T17:59:09.699Z,25.80
2024-02-29T18:01:42.008Z,19.30
2024-02-29T18:04:13.875Z,26.20
2024-02-29T18:06:50.674Z,24.00
2024-02-29T18:09:23.476Z,21.90
2024-02-29T18:11:53.809Z,19.00
2024-02-29T18:14:32.828Z,32.70
2024-02-29T18:19:29.574Z,24.10
2024-02-29T18:22:08.396Z,25.60
2024-02-29T18:24:43.551Z,23.60
2024-02-29T18:27:15.515Z,25.50
2024-02-29T18:29:49.869Z,23.90
2024-02-29T18:32:24.490Z,28.00
2024-02-29T18:34:53.428Z,27.00
2024-02-29T18:37:33.089Z,24.80
2024-02-29T18:40:03.393Z,19.30
2024-02-29T18:42:31.752Z,25.60
2024-02-29T18:45:01.527Z,27.20
2024-02-29T18:47:29.862Z,27.00
2024-02-29T18:50:00.799Z,28.50
2024-02-29T18:52:32.885Z,32.90
2024-02-29T18:55:08.446Z,27.10
2024-02-29T18:57:47.068Z,24.30
2024-02-29T19:00:16.570Z,22.40
2024-02-29T19:02:45.132Z,28.60
2024-02-29T19:05:15.513Z,30.30
2024-02-29T19:07:48.350Z,30.70
2024-02-29T19:10:26.979Z,36.80
2024-02-29T19:12:57.009Z,32.70
2024-02-29T19:15:27.114Z,40.60
2024-02-29T19:17:55.209Z,39.50
2024-02-29T19:20:26.690Z,33.30
2024-02-29T19:22:57.553Z,31.90
2024-02-29T19:25:25.787Z,31.10
2024-02-29T19:27:59.039Z,33.70
2024-02-29T19:30:28.318Z,31.00
2024-02-29T19:32:56.377Z,24.40
2024-02-29T19:35:25.216Z,28.30
2024-02-29T19:37:54.390Z,32.80
2024-02-29T19:40:22.615Z,31.70
2024-02-29T19:42:51.042Z,31.00
2024-02-29T19:45:19.536Z,26.10
2024-02-29T19:47:51.165Z,21.70
2024-02-29T19:50:21.590Z,22.10
2024-02-29T19:52:49.645Z,23.10
2024-02-29T19:55:17.806Z,24.10
2024-02-29T19:57:46.088Z,27.40
2024-02-29T20:00:18.885Z,21.60
2024-02-29T20:02:49.380Z,22.60
2024-02-29T20:05:22.241Z,27.60
2024-02-29T20:07:52.308Z,20.40
2024-02-29T20:10:23.321Z,24.60
2024-02-29T20:12:54.085Z,27.60
2024-02-29T20:15:22.761Z,28.00
2024-02-29T20:17:54.408Z,24.30
2024-02-29T20:20:22.655Z,27.70
2024-02-29T20:22:51.152Z,32.90
2024-02-29T20:25:24.336Z,28.60
2024-02-29T20:27:55.359Z,28.30
2024-02-29T20:30:24.484Z,28.70
2024-02-29T20:32:52.704Z,26.00
2024-02-29T20:35:20.906Z,38.50
2024-02-29T20:37:51.411Z,30.10
2024-02-29T20:40:20.722Z,30.10
2024-02-29T20:42:54.328Z,34.20
2024-02-29T20:45:23.733Z,37.40
2024-02-29T20:47:52.091Z,44.10
2024-02-29T20:50:28.384Z,46.60
2024-02-29T20:52:56.581Z,40.50
2024-02-29T20:55:28.249Z,50.90
2024-02-29T20:57:56.299Z,39.20
2024-02-29T21:00:24.280Z,39.20
2024-02-29T21:02:55.445Z,42.90
2024-02-29T21:05:27.425Z,44.10
2024-02-29T21:08:01.446Z,55.20
2024-02-29T21:10:36.088Z,49.10
2024-02-29T21:13:07.122Z,46.80
2024-02-29T21:15:36.476Z,52.90
2024-02-29T21:18:07.919Z,44.90
2024-02-29T21:20:43.784Z,52.70
2024-02-29T21:23:12.107Z,47.40
2024-02-29T21:25:43.248Z,51.30
2024-02-29T21:28:13.011Z,49.70
2024-02-29T21:30:46.760Z,45.10
2024-02-29T21:33:38.008Z,45.00
2024-02-29T21:36:07.503Z,46.00
2024-02-29T21:38:38.971Z,44.80
2024-02-29T21:41:08.016Z,42.90
2024-02-29T21:43:36.315Z,51.00
2024-02-29T21:46:04.644Z,47.50
2024-02-29T21:48:32.807Z,53.10
2024-02-29T21:51:00.796Z,41.40
2024-02-29T21:53:29.291Z,45.20
2024-02-29T21:55:57.306Z,49.80
2024-02-29T21:58:29.852Z,46.70
2024-02-29T22:01:00.769Z,49.70
2024-02-29T22:03:32.837Z,50.10
2024-02-29T22:06:08.645Z,47.00
2024-02-29T22:08:40.638Z,44.70
2024-02-29T22:11:14.800Z,41.30
2024-02-29T22:13:43.217Z,39.80
2024-02-29T22:16:16.747Z,50.20
2024-02-29T22:18:47.692Z,44.50
2024-02-29T22:21:25.550Z,51.60
2024-02-29T22:23:55.992Z,52.20
2024-02-29T22:26:27.029Z,48.20
2024-02-29T22:28:55.003Z,56.20
2024-02-29T22:31:28.440Z,52.80
2024-02-29T22:33:58.270Z,57.30
2024-02-29T22:36:28.030Z,53.50
2024-02-29T22:38:56.556Z,60.00
2024-02-29T22:41:24.668Z,54.30
2024-02-29T22:43:59.611Z,50.50
2024-02-29T22:46:30.077Z,53.30
2024-02-29T22:49:00.075Z,58.10
2024-02-29T22:51:28.260Z,54.60
2024-02-29T22:53:56.392Z,45.70
2024-02-29T22:56:31.343Z,54.60
2024-02-29T22:59:06.058Z,45.30
2024-02-29T23:01:40.355Z,52.50
2024-02-29T23:04:09.513Z,57.80
2024-02-29T23:06:39.029Z,47.60
2024-02-29T23:09:11.339Z,53.60
2024-02-29T23:11:40.020Z,54.60
2024-02-29T23:14:13.140Z,47.50
2024-02-29T23:16:44.937Z,55.50
2024-02-29T23:19:15.773Z,58.90
2024-02-29T23:21:44.026Z,57.30
2024-02-29T23:24:12.173Z,55.30
2024-02-29T23:26:40.313Z,59.70
2024-02-29T23:29:08.527Z,52.50
2024-02-29T23:31:36.608Z,54.20
2024-02-29T23:34:05.004Z,54.90
2024-02-29T23:36:33.141Z,55.20
2024-02-29T23:39:01.320Z,62.20
2024-02-29T23:41:29.439Z,60.50
2024-02-29T23:43:57.642Z,60.90
2024-02-29T23:46:25.919Z,61.20
2024-02-29T23:48:54.232Z,59.50
2024-02-29T23:51:22.487Z,66.30
2024-02-29T23:53:50.987Z,59.40
2024-02-29T23:56:19.227Z,68.70
2024-02-29T23:58:47.402Z,68.40
